Time;durP1;ratioP1;P1;durP2;ratioP2;P2;SDS_P1;SDS_P2;PMS_P1;PMS_P2;Temp;Humidity;BMP_temperature;BMP_pressure;BME280_temperature;BME280_humidity;BME280_pressure;Samples;Min_cycle;Max_cycle;Signal;HPM_P1;HPM_P2
2021/06/21 00:01:19;;;;;;;;;0.00;0.00;;;;;22.43;65.30;99954.84;5122517;27;45510;-65
2021/06/21 00:03:44;;;;;;;;;0.00;0.00;;;;;22.47;65.18;99960.59;5122540;27;45319;-64
2021/06/21 00:06:10;;;;;;;;;0.00;0.00;;;;;22.52;65.41;99964.22;5104887;27;45344;-64
2021/06/21 00:08:35;;;;;;;;;0.00;0.00;;;;;22.57;64.67;99966.28;5112660;27;45324;-65
2021/06/21 00:11:00;;;;;;;;;0.00;0.00;;;;;22.61;64.72;99963.97;5122360;27;45554;-64
2021/06/21 00:13:26;;;;;;;;;0.00;0.00;;;;;22.65;64.90;99975.88;5111531;27;45387;-64
2021/06/21 00:15:52;;;;;;;;;0.00;0.00;;;;;22.68;64.86;99978.97;5086683;27;45429;-65
2021/06/21 00:18:17;;;;;;;;;0.00;0.00;;;;;22.76;64.79;99977.84;5112587;27;45336;-65
2021/06/21 00:20:43;;;;;;;;;0.00;0.00;;;;;22.79;64.43;99968.59;5122460;27;45602;-65
2021/06/21 00:23:08;;;;;;;;;0.00;0.00;;;;;22.69;63.99;99969.88;5122157;27;45797;-64
2021/06/21 00:25:34;;;;;;;;;0.00;0.00;;;;;22.56;64.30;99969.16;5121977;27;45210;-64
2021/06/21 00:27:59;;;;;;;;;0.00;0.00;;;;;22.50;65.06;99965.50;5121836;27;45795;-64
2021/06/21 00:30:25;;;;;;;;;0.00;0.00;;;;;22.41;64.72;99958.75;5103505;27;45286;-65
2021/06/21 00:32:50;;;;;;;;;0.00;0.00;;;;;22.41;65.48;99964.13;5122207;27;46355;-64
2021/06/21 00:35:17;;;;;;;;;0.00;0.00;;;;;22.43;65.09;99972.75;5121623;27;45236;-64
2021/06/21 00:37:42;;;;;;;;;0.00;0.00;;;;;22.46;65.08;99980.34;5104057;27;45366;-64
2021/06/21 00:40:09;;;;;;;;;0.00;0.00;;;;;22.49;65.22;99972.72;5122106;27;45510;-64
2021/06/21 00:42:36;;;;;;;;;0.00;0.00;;;;;22.58;65.14;99975.13;5121372;27;46158;-63
2021/06/21 00:45:01;;;;;;;;;1.00;1.00;;;;;22.64;64.96;99972.41;5121625;27;45384;-64
2021/06/21 00:47:27;;;;;;;;;0.00;0.00;;;;;22.67;64.54;99965.78;5121741;27;45339;-64
2021/06/21 00:49:52;;;;;;;;;0.00;0.00;;;;;22.66;64.89;99972.19;5121939;27;45282;-65
2021/06/21 00:52:21;;;;;;;;;0.00;0.00;;;;;22.66;65.00;99969.50;5121538;27;45373;-64
2021/06/21 00:54:47;;;;;;;;;0.00;0.00;;;;;22.64;64.22;99975.06;5121597;27;45467;-64
2021/06/21 00:57:13;;;;;;;;;0.00;0.00;;;;;22.59;65.08;99974.06;5124859;27;45309;-65
2021/06/21 00:59:38;;;;;;;;;0.00;0.00;;;;;22.58;65.21;99972.44;5125104;27;45456;-65
2021/06/21 01:02:04;;;;;;;;;0.00;0.00;;;;;22.59;65.10;99974.06;5124919;27;46891;-64
2021/06/21 01:04:29;;;;;;;;;0.00;0.00;;;;;22.58;64.52;99980.47;5122106;27;45363;-64
2021/06/21 01:06:55;;;;;;;;;0.00;0.00;;;;;22.49;64.56;99978.06;5113971;27;45299;-64
2021/06/21 01:09:21;;;;;;;;;0.00;0.00;;;;;22.43;64.52;99976.25;5125174;27;45347;-66
2021/06/21 01:11:55;;;;;;;;;0.00;0.00;;;;;22.42;65.18;99976.44;5124709;27;45316;-64
2021/06/21 01:14:35;;;;;;;;;0.00;0.00;;;;;22.39;64.94;99974.22;5110704;27;45416;-65
2021/06/21 01:17:09;;;;;;;;;0.00;0.00;;;;;22.38;65.07;99972.59;5125292;27;45289;-64
2021/06/21 01:20:22;;;;;;;;;0.00;0.00;;;;;22.35;65.59;99967.66;5104347;27;45309;-64
2021/06/21 01:23:03;;;;;;;;;0.00;0.00;;;;;22.36;65.53;99966.63;5096789;27;45578;-64
2021/06/21 01:25:51;;;;;;;;;0.00;0.00;;;;;22.35;65.07;99963.09;5124719;27;45408;-65
2021/06/21 01:28:46;;;;;;;;;0.00;0.00;;;;;22.33;65.54;99965.19;5124887;27;45235;-66
2021/06/21 01:31:15;;;;;;;;;0.00;0.00;;;;;22.34;65.04;99974.88;5125143;27;45323;-65
2021/06/21 01:33:42;;;;;;;;;0.00;0.00;;;;;22.36;64.97;99977.34;5124735;27;45321;-65
2021/06/21 01:36:11;;;;;;;;;0.00;0.00;;;;;22.30;65.32;99968.31;5106098;27;45559;-64
2021/06/21 01:38:42;;;;;;;;;0.00;0.00;;;;;22.27;65.71;99972.22;5124596;27;45433;-64
2021/06/21 01:41:14;;;;;;;;;0.00;0.00;;;;;22.27;65.24;99979.44;5124662;27;45469;-64
2021/06/21 01:43:43;;;;;;;;;0.00;0.00;;;;;22.27;65.50;99982.13;5124078;27;47407;-64
2021/06/21 01:46:14;;;;;;;;;0.00;0.00;;;;;22.22;65.75;99982.72;5124850;27;45399;-64
2021/06/21 01:48:45;;;;;;;;;0.00;0.00;;;;;22.20;65.99;99983.94;5124853;27;45167;-64
2021/06/21 01:51:12;;;;;;;;;0.00;0.00;;;;;22.16;66.06;99980.91;5124675;27;45283;-64
2021/06/21 01:53:39;;;;;;;;;0.00;0.00;;;;;22.16;66.33;99988.09;5124080;27;46467;-65
2021/06/21 01:56:10;;;;;;;;;0.00;0.00;;;;;22.15;66.35;99975.75;5123972;27;45269;-65
2021/06/21 01:58:38;;;;;;;;;0.00;0.00;;;;;22.13;65.85;99986.66;5124318;27;45380;-64
2021/06/21 02:01:14;;;;;;;;;0.00;0.00;;;;;22.09;66.00;99977.41;5124139;27;45655;-64
2021/06/21 02:03:43;;;;;;;;;0.00;0.00;;;;;22.08;65.88;99987.31;5124186;27;45218;-64
2021/06/21 02:06:11;;;;;;;;;1.00;1.00;;;;;22.11;65.64;99991.41;5105795;27;45297;-64
2021/06/21 02:08:37;;;;;;;;;0.00;0.00;;;;;22.12;65.64;99995.72;5095901;27;45289;-64
2021/06/21 02:11:03;;;;;;;;;0.00;0.00;;;;;22.13;65.28;99997.34;5124136;27;45297;-64
2021/06/21 02:13:28;;;;;;;;;0.00;0.00;;;;;22.11;65.13;100004.78;5112225;27;45420;-64
2021/06/21 02:15:55;;;;;;;;;0.00;0.00;;;;;22.10;64.77;99995.94;5120339;27;45285;-65
2021/06/21 02:18:22;;;;;;;;;0.00;0.00;;;;;22.12;64.58;100001.09;5123749;27;45373;-65
2021/06/21 02:20:50;;;;;;;;;0.00;0.00;;;;;22.10;64.51;99995.94;5124213;27;45245;-64
2021/06/21 02:23:18;;;;;;;;;0.00;0.00;;;;;22.09;64.20;100001.50;5124090;27;46108;-64
2021/06/21 02:25:48;;;;;;;;;0.00;0.00;;;;;22.09;64.08;100002.34;5123993;27;45452;-65
2021/06/21 02:28:15;;;;;;;;;0.00;0.00;;;;;22.07;63.50;100003.56;5123873;27;45352;-64
2021/06/21 02:30:41;;;;;;;;;0.00;0.00;;;;;22.05;63.37;99998.44;5123930;27;45511;-64
2021/06/21 02:33:06;;;;;;;;;0.00;0.00;;;;;22.03;63.13;99996.97;5123894;27;46264;-65
2021/06/21 02:35:32;;;;;;;;;0.00;0.00;;;;;21.99;62.71;99991.25;5123604;27;45256;-65
2021/06/21 02:37:57;;;;;;;;;0.00;0.00;;;;;21.96;62.73;100001.56;5124071;27;45339;-65
2021/06/21 02:40:24;;;;;;;;;0.00;0.00;;;;;21.93;62.77;100000.13;5123649;27;45255;-65
2021/06/21 02:42:49;;;;;;;;;0.00;0.00;;;;;21.90;62.72;100013.94;5123153;27;46147;-65
2021/06/21 02:45:15;;;;;;;;;0.00;0.00;;;;;21.85;62.38;100008.38;5123413;27;45148;-64
2021/06/21 02:47:43;;;;;;;;;0.00;0.00;;;;;21.78;62.56;99999.56;5123620;27;45214;-65
2021/06/21 02:50:09;;;;;;;;;0.00;0.00;;;;;21.70;62.69;100004.09;5123495;27;45559;-64
2021/06/21 02:53:02;;;;;;;;;0.00;0.00;;;;;21.67;62.69;100006.38;5123345;27;47531;-64
2021/06/21 02:55:50;;;;;;;;;0.00;0.00;;;;;21.63;63.01;100000.63;5123604;27;45244;-64
2021/06/21 02:58:33;;;;;;;;;0.00;0.00;;;;;21.57;62.81;100004.13;5123056;27;45483;-64
2021/06/21 03:01:02;;;;;;;;;0.00;0.00;;;;;21.55;63.01;100008.03;5104904;27;45553;-65
2021/06/21 03:03:31;;;;;;;;;0.25;0.00;;;;;21.50;62.94;100019.38;5123454;27;46333;-65
2021/06/21 03:05:59;;;;;;;;;0.00;0.00;;;;;21.46;63.30;100024.28;5107233;27;45246;-64
2021/06/21 03:08:26;;;;;;;;;0.00;0.00;;;;;21.47;62.95;100030.47;5102900;27;45291;-64
2021/06/21 03:10:53;;;;;;;;;0.00;0.00;;;;;21.49;63.31;100028.41;5119459;27;45328;-65
2021/06/21 03:13:21;;;;;;;;;0.00;0.00;;;;;21.50;63.22;100033.53;5112887;27;46313;-64
2021/06/21 03:15:49;;;;;;;;;0.00;0.00;;;;;21.53;63.05;100028.81;5119588;27;45320;-64
2021/06/21 03:18:19;;;;;;;;;0.00;0.00;;;;;21.53;63.27;100031.47;5122611;27;45322;-64
2021/06/21 03:20:45;;;;;;;;;0.00;0.00;;;;;21.52;63.10;100027.19;5104950;27;45309;-64
2021/06/21 03:23:10;;;;;;;;;0.00;0.00;;;;;21.50;63.23;100030.84;5122932;27;45294;-64
2021/06/21 03:25:36;;;;;;;;;0.00;0.00;;;;;21.50;63.22;100028.19;5123009;27;45273;-65
2021/06/21 03:28:11;;;;;;;;;0.00;0.00;;;;;21.52;62.93;100032.53;5122757;27;45238;-65
2021/06/21 03:30:43;;;;;;;;;0.00;0.00;;;;;21.54;63.23;100035.81;5123028;27;45530;-65
2021/06/21 03:33:09;;;;;;;;;0.00;0.00;;;;;21.56;62.90;100034.56;5122746;27;46326;-65
2021/06/21 03:35:34;;;;;;;;;0.00;0.00;;;;;21.58;62.95;100032.50;5104275;27;46024;-65
2021/06/21 03:38:14;;;;;;;;;0.00;0.00;;;;;21.57;63.01;100030.84;5123276;27;45290;-65
2021/06/21 03:40:40;;;;;;;;;0.00;0.00;;;;;21.58;63.10;100032.50;5123160;27;45290;-65
2021/06/21 03:43:06;;;;;;;;;0.00;0.00;;;;;21.59;63.17;100036.00;5103891;27;47058;-65
2021/06/21 03:45:31;;;;;;;;;0.00;0.00;;;;;21.55;63.00;100016.88;5104260;27;45440;-65
2021/06/21 03:47:57;;;;;;;;;0.00;0.00;;;;;21.54;62.94;100023.25;5123079;27;45284;-64
2021/06/21 03:50:22;;;;;;;;;0.00;0.00;;;;;21.54;62.82;100031.28;5123138;27;45468;-64
2021/06/21 03:52:47;;;;;;;;;0.00;0.00;;;;;21.50;63.09;100028.19;5122404;27;45297;-65
2021/06/21 03:55:13;;;;;;;;;0.00;0.00;;;;;21.50;63.06;100038.06;5122513;27;45236;-65
2021/06/21 03:57:42;;;;;;;;;0.00;0.00;;;;;21.50;63.31;100041.53;5122500;27;45284;-65
2021/06/21 04:00:12;;;;;;;;;0.00;0.00;;;;;21.53;62.91;100039.50;5123064;27;45254;-64
2021/06/21 04:02:38;;;;;;;;;0.00;0.00;;;;;21.52;62.96;100035.19;5122443;27;45693;-65
2021/06/21 04:05:04;;;;;;;;;0.00;0.00;;;;;21.54;62.82;100047.31;5114662;27;45218;-64
2021/06/21 04:07:30;;;;;;;;;0.00;0.00;;;;;21.56;62.77;100047.94;5116250;27;45298;-65
2021/06/21 04:09:55;;;;;;;;;0.00;0.00;;;;;21.57;62.68;100048.75;5122652;27;45202;-64
2021/06/21 04:12:23;;;;;;;;;0.00;0.00;;;;;21.56;62.78;100049.78;5121095;27;45421;-65
2021/06/21 04:14:48;;;;;;;;;0.00;0.00;;;;;21.53;62.71;100052.84;5109449;27;45395;-64
2021/06/21 04:17:14;;;;;;;;;0.00;0.00;;;;;21.54;62.72;100049.16;5103752;27;45270;-64
2021/06/21 04:19:39;;;;;;;;;0.00;0.00;;;;;21.48;62.51;100056.16;5122432;27;45316;-64
2021/06/21 04:22:04;;;;;;;;;0.00;0.00;;;;;21.41;62.99;100063.31;5121884;27;48120;-64
2021/06/21 04:24:30;;;;;;;;;0.00;0.00;;;;;21.34;62.85;100058.00;5122157;27;45397;-64
2021/06/21 04:26:55;;;;;;;;;0.00;0.00;;;;;21.32;62.45;100060.03;5121713;27;45304;-65
2021/06/21 04:29:20;;;;;;;;;0.00;0.00;;;;;21.28;63.07;100064.97;5122169;27;45302;-65
2021/06/21 04:31:46;;;;;;;;;0.00;0.00;;;;;21.32;63.04;100068.06;5124778;27;46590;-66
2021/06/21 04:34:11;;;;;;;;;0.00;0.00;;;;;21.41;62.86;100063.31;5107069;27;45437;-65
2021/06/21 04:36:36;;;;;;;;;0.00;0.00;;;;;21.50;62.51;100057.56;5125567;27;45348;-65
2021/06/21 04:39:02;;;;;;;;;0.00;0.00;;;;;21.58;62.56;100058.41;5125710;27;45313;-64
2021/06/21 04:41:28;;;;;;;;;0.00;0.00;;;;;21.58;62.54;100064.56;5124994;27;45681;-64
2021/06/21 04:43:53;;;;;;;;;0.00;0.00;;;;;21.54;62.37;100058.00;5125094;27;45211;-64
2021/06/21 04:46:18;;;;;;;;;0.00;0.00;;;;;21.51;62.36;100058.38;5125453;27;45299;-65
2021/06/21 04:48:47;;;;;;;;;0.00;0.00;;;;;21.49;62.52;100060.47;5125461;27;45362;-65
2021/06/21 04:51:13;;;;;;;;;0.00;0.00;;;;;21.47;62.68;100067.88;5124725;27;46118;-65
2021/06/21 04:53:38;;;;;;;;;0.00;0.00;;;;;21.49;62.62;100060.47;5106337;27;45433;-65
2021/06/21 04:56:04;;;;;;;;;0.00;0.00;;;;;21.52;62.46;100065.41;5125073;27;45330;-65
2021/06/21 04:58:34;;;;;;;;;0.00;0.00;;;;;21.60;62.40;100065.19;5106639;27;45438;-65
2021/06/21 05:00:59;;;;;;;;;0.00;0.00;;;;;21.66;62.30;100069.69;5124596;27;45609;-65
2021/06/21 05:03:25;;;;;;;;;0.00;0.00;;;;;21.81;61.94;100090.00;5125006;27;45262;-65
2021/06/21 05:05:50;;;;;;;;;0.00;0.00;;;;;21.77;62.04;100078.94;5111322;27;45437;-64
2021/06/21 05:08:15;;;;;;;;;0.00;0.00;;;;;21.76;62.06;100077.28;5111914;27;45413;-65
2021/06/21 05:10:41;;;;;;;;;0.00;0.00;;;;;21.76;61.92;100079.94;5124780;27;45592;-64
2021/06/21 05:13:08;;;;;;;;;0.00;0.00;;;;;21.77;61.70;100080.75;5117508;27;45395;-66
2021/06/21 05:15:33;;;;;;;;;0.00;0.00;;;;;21.77;61.88;100081.63;5117859;27;45282;-65
2021/06/21 05:17:59;;;;;;;;;0.00;0.00;;;;;21.75;61.86;100091.69;5124916;27;45310;-65
2021/06/21 05:20:24;;;;;;;;;0.00;0.00;;;;;21.73;61.78;100099.09;5124328;27;47061;-64
2021/06/21 05:22:51;;;;;;;;;0.00;0.00;;;;;21.70;61.66;100092.28;5124195;27;45302;-65
2021/06/21 05:25:18;;;;;;;;;0.00;0.00;;;;;21.71;61.91;100098.47;5124335;27;45242;-64
2021/06/21 05:27:44;;;;;;;;;0.00;0.00;;;;;21.60;63.34;100097.25;5124033;27;45401;-63
2021/06/21 05:30:10;;;;;;;;;0.00;0.00;;;;;21.62;62.36;100092.53;5123522;27;46557;-64
2021/06/21 05:32:36;;;;;;;;;0.00;0.00;;;;;21.64;62.17;100086.94;5124007;27;45275;-63
2021/06/21 05:35:03;;;;;;;;;0.00;0.00;;;;;21.67;62.56;100091.91;5124211;27;45236;-63
2021/06/21 05:37:28;;;;;;;;;0.00;0.00;;;;;21.74;62.23;100084.69;5124242;27;45387;-63
2021/06/21 05:39:53;;;;;;;;;1.00;0.00;;;;;21.74;62.09;100090.03;5123437;27;48001;-63
2021/06/21 05:42:20;;;;;;;;;0.00;0.00;;;;;21.72;62.49;100100.09;5122945;27;45360;-63
2021/06/21 05:44:46;;;;;;;;;0.00;0.00;;;;;21.70;61.93;100105.66;5123652;27;45342;-63
2021/06/21 05:47:14;;;;;;;;;0.00;0.00;;;;;21.71;61.96;100115.31;5123547;27;45517;-64
2021/06/21 05:49:39;;;;;;;;;0.00;0.00;;;;;21.79;62.17;100108.97;5123304;27;47075;-64
2021/06/21 05:52:05;;;;;;;;;0.00;0.00;;;;;21.85;61.67;100105.44;5105023;27;46232;-62
2021/06/21 05:54:30;;;;;;;;;0.00;0.00;;;;;21.85;61.87;100112.63;5123703;27;45263;-63
2021/06/21 05:56:55;;;;;;;;;0.00;0.00;;;;;21.95;61.26;100112.22;5123822;27;45233;-64
2021/06/21 05:59:21;;;;;;;;;0.00;0.00;;;;;22.01;60.94;100116.69;5123529;27;46673;-63
2021/06/21 06:01:46;;;;;;;;;0.00;0.00;;;;;22.06;60.90;100124.94;5123702;27;45217;-63
2021/06/21 06:04:12;;;;;;;;;0.00;0.00;;;;;22.11;61.21;100128.59;5122550;27;45469;-63
2021/06/21 06:06:37;;;;;;;;;0.00;0.00;;;;;22.23;60.43;100128.81;5110793;27;45433;-63
2021/06/21 06:09:02;;;;;;;;;0.00;0.00;;;;;22.36;60.16;100129.81;5123501;27;45432;-64
2021/06/21 06:11:28;;;;;;;;;0.00;0.00;;;;;22.47;59.79;100126.47;5123220;27;45253;-64
2021/06/21 06:13:53;;;;;;;;;0.00;0.00;;;;;22.52;59.08;100137.38;5109322;27;45309;-64
2021/06/21 06:16:18;;;;;;;;;0.00;0.00;;;;;22.58;59.62;100139.19;5122879;27;45226;-64
2021/06/21 06:18:44;;;;;;;;;0.00;0.00;;;;;22.65;59.57;100139.97;5122630;27;46385;-63
2021/06/21 06:21:11;;;;;;;;;0.00;0.00;;;;;22.67;59.61;100145.94;5123017;27;45472;-63
2021/06/21 06:23:38;;;;;;;;;0.00;0.00;;;;;22.71;59.39;100149.03;5122642;27;45321;-64
2021/06/21 06:26:04;;;;;;;;;0.00;0.00;;;;;22.76;58.61;100151.88;5122455;27;45230;-64
2021/06/21 06:28:30;;;;;;;;;0.00;0.00;;;;;22.78;58.48;100148.97;5122075;27;45207;-65
2021/06/21 06:30:55;;;;;;;;;0.00;0.00;;;;;22.82;58.48;100156.38;5122934;27;45341;-64
2021/06/21 06:33:20;;;;;;;;;0.00;0.00;;;;;22.89;58.18;100154.50;5122774;27;45261;-63
2021/06/21 06:35:46;;;;;;;;;0.00;0.00;;;;;22.97;57.80;100150.72;5123162;27;45265;-65
2021/06/21 06:38:11;;;;;;;;;0.00;0.00;;;;;23.05;57.49;100157.75;5122809;27;45968;-62
2021/06/21 06:40:36;;;;;;;;;0.00;0.00;;;;;23.03;57.10;100151.78;5122940;27;45417;-63
2021/06/21 06:43:02;;;;;;;;;0.00;0.00;;;;;23.10;56.65;100142.66;5122461;27;45685;-63
2021/06/21 06:45:27;;;;;;;;;0.50;0.00;;;;;23.24;56.88;100134.50;5122795;27;45490;-64
2021/06/21 06:47:53;;;;;;;;;0.00;0.00;;;;;23.58;56.80;100135.09;5122583;27;45130;-64
2021/06/21 06:50:18;;;;;;;;;0.00;0.00;;;;;24.03;55.53;100129.53;5103639;27;45449;-63
2021/06/21 06:52:44;;;;;;;;;0.00;0.00;;;;;24.17;55.20;100131.06;5102760;27;45722;-64
2021/06/21 06:57:56;;;;;;;;;0.00;0.00;;;;;25.13;53.30;100132.09;5121768;27;45802;-64
2021/06/21 07:00:21;;;;;;;;;0.00;0.00;;;;;25.25;52.57;100137.53;5122424;27;45392;-64
2021/06/21 07:02:47;;;;;;;;;0.00;0.00;;;;;25.33;52.30;100145.22;5103509;27;45305;-65
2021/06/21 07:05:13;;;;;;;;;0.00;0.00;;;;;25.32;51.78;100138.22;5113019;27;45656;-64
2021/06/21 07:07:38;;;;;;;;;0.00;0.00;;;;;25.22;52.19;100146.03;5100158;27;47100;-64
2021/06/21 07:10:05;;;;;;;;;0.00;0.00;;;;;25.17;52.45;100146.69;5122406;27;45296;-65
2021/06/21 07:12:30;;;;;;;;;0.00;0.00;;;;;25.12;52.36;100145.78;5100560;27;45403;-65
2021/06/21 07:14:56;;;;;;;;;0.00;0.00;;;;;25.10;51.42;100156.72;5111589;27;45151;-64
2021/06/21 07:17:21;;;;;;;;;0.00;0.00;;;;;25.06;51.87;100154.75;5122212;27;46340;-65
2021/06/21 07:19:46;;;;;;;;;0.00;0.00;;;;;25.01;51.78;100155.44;5121937;27;45233;-64
2021/06/21 07:22:12;;;;;;;;;0.00;0.00;;;;;24.97;51.22;100156.94;5122253;27;45228;-64
2021/06/21 07:24:37;;;;;;;;;0.00;0.00;;;;;24.99;51.76;100162.91;5122823;27;45421;-64
2021/06/21 07:27:04;;;;;;;;;0.00;0.00;;;;;25.30;50.88;100161.03;5121713;27;46040;-64
2021/06/21 07:29:29;;;;;;;;;0.00;0.00;;;;;25.69;50.63;100153.38;5103514;27;45387;-64
2021/06/21 07:31:55;;;;;;;;;0.00;0.00;;;;;26.02;49.85;100168.13;5122324;27;45323;-64
2021/06/21 07:34:20;;;;;;;;;0.00;0.00;;;;;26.18;49.02;100162.84;5122451;27;45389;-64
2021/06/21 07:36:46;;;;;;;;;0.00;0.00;;;;;26.36;48.63;100167.25;5121427;27;46248;-63
2021/06/21 07:39:12;;;;;;;;;0.00;0.00;;;;;26.86;48.73;100165.84;5122326;27;45337;-63
2021/06/21 07:41:37;;;;;;;;;0.00;0.00;;;;;27.27;47.39;100172.00;5122100;27;45463;-64
2021/06/21 07:44:03;;;;;;;;;0.00;0.00;;;;;27.56;47.16;100171.94;5122326;27;45398;-63
2021/06/21 07:46:29;;;;;;;;;0.00;0.00;;;;;27.45;46.88;100181.78;5122056;27;46627;-63
2021/06/21 07:48:55;;;;;;;;;0.00;0.00;;;;;27.28;46.91;100187.13;5121854;27;45237;-64
2021/06/21 07:51:22;;;;;;;;;0.00;0.00;;;;;27.23;46.03;100184.34;5121294;27;45306;-63
2021/06/21 07:53:51;;;;;;;;;0.00;0.00;;;;;27.39;46.52;100186.25;5122253;27;45322;-63
2021/06/21 07:56:16;;;;;;;;;0.00;0.00;;;;;27.87;45.40;100183.25;5121361;27;47048;-63
2021/06/21 07:58:42;;;;;;;;;0.00;0.00;;;;;28.22;44.75;100191.03;5122016;27;45250;-63
2021/06/21 08:01:11;;;;;;;;;0.00;0.00;;;;;28.87;43.12;100188.59;5121860;27;45521;-64
2021/06/21 08:03:37;;;;;;;;;0.00;0.00;;;;;29.46;41.69;100194.09;5121527;27;45386;-65
2021/06/21 08:06:04;;;;;;;;;0.00;0.00;;;;;29.99;39.28;100186.09;5108469;27;46322;-64
2021/06/21 08:08:30;;;;;;;;;0.00;0.00;;;;;30.08;39.98;100197.25;5115188;27;45314;-64
2021/06/21 08:10:56;;;;;;;;;0.00;0.00;;;;;29.98;39.83;100193.41;5124809;27;45361;-64
2021/06/21 08:13:22;;;;;;;;;0.00;0.00;;;;;30.45;39.79;100191.78;5115450;27;45229;-64
2021/06/21 08:15:47;;;;;;;;;0.00;0.00;;;;;30.92;38.90;100193.59;5121598;27;46461;-64
2021/06/21 08:18:14;;;;;;;;;0.00;0.00;;;;;31.21;38.16;100203.94;5125124;27;45506;-64
2021/06/21 08:20:42;;;;;;;;;0.00;0.00;;;;;31.39;37.04;100206.16;5125295;27;45260;-64
2021/06/21 08:23:10;;;;;;;;;0.00;0.00;;;;;31.59;36.95;100208.06;5106743;27;45793;-64
2021/06/21 08:25:36;;;;;;;;;0.00;0.00;;;;;31.78;35.32;100211.06;5124951;27;45527;-64
2021/06/21 08:28:02;;;;;;;;;0.00;0.00;;;;;31.50;34.04;100204.28;5124579;27;45379;-65
2021/06/21 08:30:28;;;;;;;;;0.00;0.00;;;;;31.67;33.61;100214.88;5124804;27;45308;-64
2021/06/21 08:32:53;;;;;;;;;0.00;0.00;;;;;31.74;33.01;100206.44;5125644;27;45314;-64
2021/06/21 08:35:18;;;;;;;;;0.00;0.00;;;;;31.81;32.42;100205.06;5124315;27;45379;-65
2021/06/21 08:37:44;;;;;;;;;0.00;0.00;;;;;31.97;33.18;100203.16;5106598;27;45288;-64
2021/06/21 08:40:10;;;;;;;;;0.00;0.00;;;;;32.26;32.91;100208.00;5125084;27;45155;-65
2021/06/21 08:42:37;;;;;;;;;0.00;0.00;;;;;32.53;33.05;100204.94;5124630;27;45311;-64
2021/06/21 08:45:06;;;;;;;;;0.00;0.00;;;;;32.73;32.13;100197.78;5124431;27;46267;-64
2021/06/21 08:47:32;;;;;;;;;0.00;0.00;;;;;32.95;32.13;100197.38;5125060;27;45312;-64
2021/06/21 08:50:00;;;;;;;;;0.00;0.00;;;;;33.22;31.25;100199.66;5106135;27;45365;-63
2021/06/21 08:52:25;;;;;;;;;0.00;0.00;;;;;33.50;28.93;100200.84;5124663;27;45385;-64
2021/06/21 08:54:54;;;;;;;;;0.00;0.00;;;;;33.69;28.96;100206.38;5124561;27;46533;-64
2021/06/21 08:57:27;;;;;;;;;0.00;0.00;;;;;33.81;29.69;100220.44;5124138;27;45251;-64
2021/06/21 08:59:52;;;;;;;;;0.00;0.00;;;;;34.08;28.95;100219.06;5124633;27;45360;-64
2021/06/21 09:02:18;;;;;;;;;0.00;0.00;;;;;34.45;27.98;100215.72;5124742;27;45512;-64
2021/06/21 09:04:43;;;;;;;;;0.00;0.00;;;;;34.82;27.93;100205.19;5118681;27;46193;-65
2021/06/21 09:07:35;;;;;;;;;0.00;0.00;;;;;35.18;27.81;100208.19;5116226;27;45502;-64
2021/06/21 09:10:05;;;;;;;;;0.00;0.00;;;;;35.33;26.43;100212.59;5119424;27;45108;-64
2021/06/21 09:12:32;;;;;;;;;0.00;0.00;;;;;36.11;26.23;100219.19;5121360;27;45411;-64
2021/06/21 09:14:59;;;;;;;;;0.00;0.00;;;;;37.46;24.80;100215.22;5113338;27;45673;-65
2021/06/21 09:17:28;;;;;;;;;0.00;0.00;;;;;39.06;23.51;100218.72;5123389;27;45271;-65
2021/06/21 09:19:59;;;;;;;;;0.00;0.00;;;;;40.63;21.66;100215.53;5124559;27;45210;-64
2021/06/21 09:22:37;;;;;;;;;0.00;0.00;;;;;42.19;19.99;100218.72;5124021;27;45392;-64
2021/06/21 09:25:25;;;;;;;;;0.00;0.00;;;;;43.52;18.76;100216.28;5123957;27;46932;-64
2021/06/21 09:27:54;;;;;;;;;1.00;1.00;;;;;43.89;18.45;100222.41;5123702;27;45388;-65
2021/06/21 09:30:20;;;;;;;;;0.00;0.00;;;;;43.71;16.81;100230.25;5124079;27;45335;-65
2021/06/21 09:32:51;;;;;;;;;0.00;0.00;;;;;42.58;16.07;100230.19;5124057;27;45439;-64
2021/06/21 09:35:25;;;;;;;;;0.00;0.00;;;;;41.06;18.11;100230.91;5123474;27;46287;-63
2021/06/21 09:37:50;;;;;;;;;0.00;0.00;;;;;39.74;19.63;100235.47;5123588;27;45289;-64
2021/06/21 09:40:29;;;;;;;;;0.00;0.00;;;;;38.59;20.55;100240.47;5123673;27;45388;-65
2021/06/21 09:42:56;;;;;;;;;0.00;0.00;;;;;38.26;20.77;100240.81;5123313;27;45557;-63
2021/06/21 09:45:21;;;;;;;;;0.00;0.00;;;;;38.77;20.78;100246.78;5123509;27;45329;-64
2021/06/21 09:47:47;;;;;;;;;0.00;0.00;;;;;39.09;21.16;100264.75;5123730;27;45164;-64
2021/06/21 09:50:22;;;;;;;;;0.00;0.00;;;;;39.75;20.51;100253.56;5123557;27;45334;-64
2021/06/21 09:52:55;;;;;;;;;0.00;0.00;;;;;40.28;20.37;100259.72;5123374;27;45383;-64
2021/06/21 09:55:20;;;;;;;;;0.00;0.00;;;;;40.35;20.30;100257.28;5082331;27;47542;-63
2021/06/21 09:57:47;;;;;;;;;0.00;0.00;;;;;40.53;19.94;100265.44;5081455;28;45513;-65
2021/06/21 10:00:15;;;;;;;;;0.00;0.00;;;;;41.29;19.29;100258.94;5082231;27;45321;-65
2021/06/21 10:02:40;;;;;;;;;0.00;0.00;;;;;42.79;18.68;100262.38;5082255;27;45302;-65
2021/06/21 10:05:17;;;;;;;;;0.00;0.00;;;;;44.41;16.49;100256.50;5072866;27;46841;-64
2021/06/21 10:07:43;;;;;;;;;0.00;0.00;;;;;45.80;15.96;100260.56;5061261;28;45314;-64
2021/06/21 10:10:11;;;;;;;;;0.00;0.00;;;;;46.78;14.75;100274.78;5061708;28;45534;-64
2021/06/21 10:12:39;;;;;;;;;0.00;0.00;;;;;46.78;15.20;100269.22;5061092;28;45164;-64
2021/06/21 10:15:06;;;;;;;;;0.00;0.00;;;;;45.34;15.36;100275.16;5072352;28;45858;-65
2021/06/21 10:17:32;;;;;;;;;0.00;0.00;;;;;43.28;15.69;100283.56;5081579;27;45324;-64
2021/06/21 10:19:57;;;;;;;;;0.00;0.00;;;;;41.21;16.89;100276.34;5082299;28;45362;-64
2021/06/21 10:22:25;;;;;;;;;0.00;0.00;;;;;39.38;17.68;100275.09;5081846;27;45388;-64
2021/06/21 10:24:56;;;;;;;;;0.00;0.00;;;;;38.07;19.54;100275.91;5081721;27;47036;-64
2021/06/21 10:27:22;;;;;;;;;0.00;0.00;;;;;37.40;19.81;100274.78;5080088;27;45426;-63
2021/06/21 10:29:48;;;;;;;;;0.00;0.00;;;;;37.60;20.57;100270.75;5081157;28;45447;-64
2021/06/21 10:32:16;;;;;;;;;0.00;0.00;;;;;37.68;21.02;100261.00;5081283;27;45351;-64
2021/06/21 10:34:41;;;;;;;;;0.00;0.00;;;;;37.29;20.23;100263.25;5081572;27;46440;-64
2021/06/21 10:37:17;;;;;;;;;0.00;0.00;;;;;36.75;20.72;100259.53;5080071;28;45383;-64
2021/06/21 10:39:47;;;;;;;;;0.00;0.00;;;;;36.34;21.19;100263.88;5082011;27;45317;-65
2021/06/21 10:42:19;;;;;;;;;0.00;0.00;;;;;36.08;21.59;100251.78;5080103;28;45332;-63
2021/06/21 10:44:56;;;;;;;;;0.00;0.00;;;;;35.71;22.45;100259.81;5082059;27;47327;-65
2021/06/21 10:47:30;;;;;;;;;0.00;0.00;;;;;35.41;22.32;100258.34;5080269;28;45347;-65
2021/06/21 10:50:04;;;;;;;;;0.00;0.00;;;;;35.25;22.68;100260.50;5081287;27;45325;-64
2021/06/21 10:52:49;;;;;;;;;0.00;0.00;;;;;35.31;23.56;100264.78;5081109;27;45392;-64
2021/06/21 10:55:21;;;;;;;;;0.00;0.00;;;;;35.38;22.56;100249.94;5081864;27;45345;-64
2021/06/21 10:57:58;;;;;;;;;0.00;0.00;;;;;35.45;22.89;100256.66;5080734;27;45491;-65
2021/06/21 11:00:47;;;;;;;;;0.00;0.00;;;;;36.44;22.00;100262.03;5081491;27;45377;-64
2021/06/21 11:03:25;;;;;;;;;0.00;0.00;;;;;37.98;20.52;100262.13;5081500;27;45630;-65
2021/06/21 11:05:55;;;;;;;;;0.00;0.00;;;;;39.62;18.01;100264.75;5067324;27;45269;-65
2021/06/21 11:08:23;;;;;;;;;0.00;0.00;;;;;42.26;16.53;100261.47;5069769;28;45349;-64
2021/06/21 11:10:51;;;;;;;;;0.00;0.00;;;;;43.81;16.52;100267.66;5079718;28;45335;-64
2021/06/21 11:13:32;;;;;;;;;0.00;0.00;;;;;45.15;14.83;100262.06;5072029;27;45498;-64
2021/06/21 11:16:16;;;;;;;;;0.00;0.00;;;;;46.47;13.93;100265.63;5078531;28;46840;-63
2021/06/21 11:18:43;;;;;;;;;0.00;0.00;;;;;47.43;12.95;100276.38;5080696;27;45305;-63
2021/06/21 11:21:17;;;;;;;;;0.00;0.00;;;;;49.07;12.72;100265.66;5081375;27;45170;-64
2021/06/21 11:23:49;;;;;;;;;0.00;0.00;;;;;50.60;11.51;100268.94;5080988;27;45499;-65
2021/06/21 11:26:15;;;;;;;;;0.00;0.00;;;;;51.77;11.44;100267.94;5080664;27;46749;-64
2021/06/21 11:28:43;;;;;;;;;0.00;0.00;;;;;52.02;11.17;100262.94;5079647;28;45463;-63
2021/06/21 11:31:28;;;;;;;;;0.00;0.00;;;;;51.33;10.74;100247.84;5080780;27;45336;-64
2021/06/21 11:34:01;;;;;;;;;0.00;0.00;;;;;49.61;11.47;100251.84;5081036;27;45685;-64